Time;durP1;ratioP1;P1;durP2;ratioP2;P2;SDS_P1;SDS_P2;PMS_P1;PMS_P2;Temp;Humidity;BMP_temperature;BMP_pressure;BME280_temperature;BME280_humidity;BME280_pressure;Samples;Min_cycle;Max_cycle;Signal;HPM_P1;HPM_P2
2021/06/23 00:00:28;;;;;;;14.93;13.32;;;20.30;92.20;;;20.70;72.00;94864.53;5104567;28;20216;-85
2021/06/23 00:02:55;;;;;;;15.50;13.90;;;20.30;92.20;;;20.69;71.71;94871.75;5053060;28;20213;-86
2021/06/23 00:05:23;;;;;;;15.73;13.95;;;20.40;92.20;;;20.64;71.76;94872.50;5015574;28;20299;-86
2021/06/23 00:07:51;;;;;;;15.63;14.00;;;20.30;92.40;;;20.64;71.89;94893.84;4966045;28;20404;-86
2021/06/23 00:10:19;;;;;;;17.70;15.88;;;20.30;92.10;;;20.60;71.86;94898.06;4939254;28;20285;-86
2021/06/23 00:12:47;;;;;;;17.35;15.63;;;20.30;92.00;;;20.56;72.07;94896.19;4908789;29;20217;-85
2021/06/23 00:15:17;;;;;;;17.10;15.32;;;20.30;92.00;;;20.48;72.38;94894.75;4835236;29;20259;-84
2021/06/23 00:20:15;;;;;;;16.65;14.77;;;20.30;92.00;;;20.44;73.10;94891.00;5133016;27;20399;-86
2021/06/23 00:22:42;;;;;;;16.17;14.57;;;20.30;92.20;;;20.42;73.19;94883.28;5109242;28;20627;-86
2021/06/23 00:25:10;;;;;;;18.25;16.25;;;20.30;92.40;;;20.48;72.97;94900.91;5091756;28;20251;-86
2021/06/23 00:27:36;;;;;;;15.05;13.52;;;20.20;92.30;;;20.46;73.42;94889.69;5077158;28;20207;-86
2021/06/23 00:30:05;;;;;;;14.27;12.88;;;20.20;92.50;;;20.53;73.62;94894.00;5052391;28;20219;-87
2021/06/23 00:32:35;;;;;;;13.85;12.45;;;20.20;92.60;;;20.51;73.41;94883.63;4989211;28;20281;-86
2021/06/23 00:35:06;;;;;;;14.07;12.60;;;20.20;92.70;;;20.59;73.55;94901.81;4929251;29;20223;-87
2021/06/23 00:37:47;;;;;;;13.35;12.02;;;20.30;92.70;;;20.60;73.63;94886.59;4677362;30;20231;-86
2021/06/23 00:41:56;;;;;;;14.00;12.60;;;20.30;92.70;;;20.66;73.73;94900.78;5151479;27;20637;-87
2021/06/23 00:44:24;;;;;;;14.90;13.38;;;20.30;92.70;;;20.64;73.35;94907.16;5092517;28;20281;-87
2021/06/23 00:46:52;;;;;;;15.30;13.80;;;20.30;92.70;;;20.64;73.45;94904.50;5104272;28;20209;-86
2021/06/23 00:49:19;;;;;;;16.60;13.60;;;20.30;92.70;;;20.61;73.09;94909.53;5031860;28;20266;-87
2021/06/23 00:52:12;;;;;;;17.40;15.60;;;20.30;92.70;;;20.61;73.28;94917.53;4992725;28;20568;-87
2021/06/23 00:54:51;;;;;;;16.15;14.45;;;20.30;92.70;;;20.58;73.13;94896.69;4874941;29;20248;-86
2021/06/23 00:57:23;;;;;;;14.82;13.35;;;20.30;92.70;;;20.57;73.33;94892.47;4799485;29;20220;-86
2021/06/23 00:59:52;;;;;;;16.63;13.13;;;20.40;92.70;;;20.55;73.73;94884.69;4605596;30;20518;-86
2021/06/23 01:02:26;;;;;;;14.20;12.80;;;20.30;92.70;;;20.60;73.58;94891.94;5151505;27;20355;-85
2021/06/23 01:04:54;;;;;;;14.77;13.27;;;20.40;92.80;;;20.62;74.03;94903.16;5115351;28;20291;-85
2021/06/23 01:07:22;;;;;;;15.98;14.38;;;20.30;92.80;;;20.58;73.92;94907.34;5110760;28;20200;-85
2021/06/23 01:09:57;;;;;;;13.93;12.45;;;20.30;92.70;;;20.58;73.58;94942.00;5024955;28;20234;-85
2021/06/23 01:12:26;;;;;;;13.80;12.30;;;20.30;92.70;;;20.56;73.70;94946.81;5007124;28;20281;-86
2021/06/23 01:14:59;;;;;;;12.00;10.80;;;20.30;92.70;;;20.55;73.78;94937.19;4969400;28;20779;-86
2021/06/23 01:17:34;;;;;;;12.75;10.98;;;20.30;92.70;;;20.53;73.88;94910.81;4939285;28;20222;-85
2021/06/23 01:20:11;;;;;;;11.02;9.95;;;20.30;92.70;;;20.55;73.55;94905.22;4775359;29;20378;-84
2021/06/23 01:24:21;;;;;;;9.95;8.95;;;20.30;92.80;;;20.52;74.05;94897.72;5140443;27;20651;-84
2021/06/23 01:26:48;;;;;;;9.40;8.25;;;20.30;92.90;;;20.56;74.42;94906.84;5117327;28;20232;-83
2021/06/23 01:29:15;;;;;;;8.65;7.75;;;20.30;93.00;;;20.55;74.27;94906.00;5086566;28;21338;-83
2021/06/23 01:32:01;;;;;;;9.38;8.38;;;20.20;93.00;;;20.53;74.04;94912.66;4996065;28;20212;-83
2021/06/23 01:34:28;;;;;;;11.30;9.70;;;20.30;93.00;;;20.54;74.17;94922.25;5005960;28;20221;-84
2021/06/23 01:36:55;;;;;;;9.70;8.70;;;20.30;93.00;;;20.53;73.94;94920.66;4967513;28;20209;-82
2021/06/23 01:39:21;;;;;;;9.00;8.02;;;20.30;93.00;;;20.53;74.49;94918.00;4858121;29;20229;-82
2021/06/23 01:41:49;;;;;;;8.38;7.57;;;20.30;93.00;;;20.52;74.39;94921.69;4699756;29;20226;-82
2021/06/23 01:46:47;;;;;;;8.13;7.32;;;20.30;93.10;;;20.57;74.63;94946.53;5142747;27;21147;-82
2021/06/23 01:49:22;;;;;;;7.65;6.85;;;20.30;93.20;;;20.58;74.86;94945.50;5088289;28;20228;-82
2021/06/23 01:51:49;;;;;;;8.52;7.63;;;20.30;93.20;;;20.62;74.57;94945.78;5067633;28;20255;-83
2021/06/23 01:54:16;;;;;;;8.18;7.35;;;20.30;93.20;;;20.61;74.07;94944.97;5028580;28;20869;-82
2021/06/23 01:56:46;;;;;;;7.88;6.95;;;20.30;93.10;;;20.61;74.44;94947.63;5021391;28;20210;-82
2021/06/23 01:59:14;;;;;;;8.32;7.40;;;20.30;93.10;;;20.64;74.36;94940.97;4994784;28;20218;-82
2021/06/23 02:02:15;;;;;;;8.10;7.28;;;20.30;93.20;;;20.61;74.24;94918.31;4921182;28;20218;-82
2021/06/23 02:05:21;;;;;;;8.90;7.05;;;20.30;93.20;;;20.56;73.31;94906.84;5135500;27;20571;-82
2021/06/23 02:08:11;;;;;;;8.57;6.85;;;20.30;93.10;;;20.55;74.44;94918.53;5072206;28;20245;-82
2021/06/23 02:11:14;;;;;;;8.27;6.47;;;20.30;93.20;;;20.60;74.10;94927.41;5042711;28;20215;-82
2021/06/23 02:14:18;;;;;;;6.78;5.35;;;20.30;93.30;;;20.62;73.87;94911.94;4910755;29;20343;-82
2021/06/23 02:16:56;;;;;;;5.95;5.45;;;20.30;93.30;;;20.60;74.69;94892.75;4799240;29;20694;-81
2021/06/23 02:19:27;;;;;;;6.15;5.53;;;20.40;93.30;;;20.62;74.69;94892.50;4714294;30;20240;-82
2021/06/23 02:22:20;;;;;;;7.80;6.53;;;20.30;93.30;;;20.63;74.35;94880.78;4532011;31;20228;-82
2021/06/23 02:25:13;;;;;;;6.50;5.90;;;20.30;93.30;;;20.68;74.54;94885.31;5122775;27;20571;-82
2021/06/23 02:28:03;;;;;;;7.32;6.38;;;20.30;93.30;;;20.69;75.25;94863.75;5102994;28;20204;-82
2021/06/23 02:30:30;;;;;;;7.65;6.95;;;20.40;93.40;;;20.72;74.99;94859.81;5095176;28;20305;-82
2021/06/23 02:33:01;;;;;;;8.57;7.22;;;20.40;93.40;;;20.69;74.96;94858.44;5077977;28;20216;-83
2021/06/23 02:35:38;;;;;;;7.47;6.63;;;20.40;93.40;;;20.74;74.81;94879.00;5037417;28;20211;-83
2021/06/23 02:38:16;;;;;;;7.45;6.75;;;20.40;93.30;;;20.73;74.56;94888.84;4945291;28;20202;-83
2021/06/23 02:40:45;;;;;;;8.63;7.25;;;20.40;93.30;;;20.73;74.32;94883.53;4825740;29;20249;-84
2021/06/23 02:45:44;;;;;;;7.97;7.20;;;20.40;93.30;;;20.68;74.41;94853.34;5150117;27;20374;-84
2021/06/23 02:48:13;;;;;;;7.75;7.05;;;20.50;93.30;;;20.74;74.46;94863.03;5103673;28;20194;-84
2021/06/23 02:51:21;;;;;;;7.57;6.88;;;20.40;93.30;;;20.71;74.48;94858.16;5026974;28;20208;-84
2021/06/23 02:53:56;;;;;;;7.63;6.80;;;20.40;93.30;;;20.71;74.30;94860.81;4981038;28;20731;-84
2021/06/23 02:56:32;;;;;;;7.35;6.65;;;20.40;93.30;;;20.71;74.65;94871.47;4824408;29;20606;-85
2021/06/23 02:59:02;;;;;;;7.15;6.45;;;20.50;93.30;;;20.60;74.30;94865.28;4775208;29;20664;-84
2021/06/23 03:01:29;;;;;;;7.22;6.53;;;20.40;93.20;;;20.63;74.97;94872.78;4566623;30;20244;-85
2021/06/23 03:04:07;;;;;;;7.35;6.63;;;20.30;93.20;;;20.62;74.94;94869.28;5140799;27;20656;-85
2021/06/23 03:06:50;;;;;;;7.05;6.35;;;20.40;93.20;;;20.65;74.60;94873.31;5074606;28;20780;-85
2021/06/23 03:09:17;;;;;;;7.25;6.53;;;20.30;93.20;;;20.66;74.99;94871.47;5104515;28;20282;-85
2021/06/23 03:12:08;;;;;;;8.13;6.68;;;20.30;93.30;;;20.58;75.09;94854.06;5047602;28;20683;-85
2021/06/23 03:14:55;;;;;;;8.95;7.70;;;20.30;93.30;;;20.64;74.43;94861.03;4951277;28;20235;-84
2021/06/23 03:17:22;;;;;;;8.77;7.00;;;20.30;93.30;;;20.62;74.72;94869.28;4896007;29;20208;-85
2021/06/23 03:19:49;;;;;;;8.38;7.50;;;20.30;93.30;;;20.63;75.01;94880.78;4812631;29;20253;-85
2021/06/23 03:23:18;;;;;;;9.27;8.38;;;20.30;93.40;;;20.64;75.06;94885.03;5149146;27;21150;-85
2021/06/23 03:25:45;;;;;;;9.05;8.15;;;20.30;93.50;;;20.61;75.07;94886.34;5102775;28;20209;-85
2021/06/23 03:28:12;;;;;;;11.77;8.20;;;20.30;93.50;;;20.66;74.90;94885.56;5089234;28;20207;-85
2021/06/23 03:30:47;;;;;;;11.38;10.18;;;20.30;93.50;;;20.65;75.00;94881.31;5081855;28;20381;-85
2021/06/23 03:33:13;;;;;;;12.00;10.50;;;20.30;93.80;;;20.71;75.32;94885.59;5050822;28;20195;-84
2021/06/23 03:36:07;;;;;;;11.15;10.05;;;20.30;93.60;;;20.71;75.41;94885.59;4902607;29;20216;-86
2021/06/23 03:38:34;;;;;;;11.73;10.52;;;20.40;93.60;;;20.70;74.97;94881.34;4805053;29;20227;-85
2021/06/23 03:41:02;;;;;;;10.18;9.10;;;20.40;93.50;;;20.62;74.72;94885.28;4657499;30;20216;-85
2021/06/23 03:43:39;;;;;;;10.85;8.93;;;20.40;93.30;;;20.53;74.61;94902.81;5145465;27;20388;-86
2021/06/23 03:46:06;;;;;;;10.07;8.30;;;20.40;93.30;;;20.56;74.92;94909.50;5109156;28;20201;-85
2021/06/23 03:48:33;;;;;;;10.30;8.75;;;20.40;93.40;;;20.55;75.42;94913.22;5088170;28;20233;-85
2021/06/23 03:51:01;;;;;;;9.32;8.20;;;20.30;93.30;;;20.55;74.99;94921.22;5063564;28;20214;-85
2021/06/23 03:53:28;;;;;;;8.85;7.95;;;20.30;93.40;;;20.52;75.58;94916.38;4985250;28;20223;-83
2021/06/23 03:55:59;;;;;;;9.57;7.90;;;20.30;93.50;;;20.58;75.26;94926.00;4985487;28;20209;-83
2021/06/23 03:58:28;;;;;;;8.82;7.93;;;20.30;93.60;;;20.59;75.90;94920.44;4932039;28;21539;-83
2021/06/23 04:00:56;;;;;;;11.15;8.55;;;20.30;93.70;;;20.63;76.08;94932.19;4697246;30;20744;-85
2021/06/23 04:05:21;;;;;;;8.50;7.63;;;20.40;93.80;;;20.76;76.12;94936.34;5120250;27;20657;-86
2021/06/23 04:07:48;;;;;;;10.57;8.50;;;20.40;93.90;;;20.83;76.23;94936.09;5052189;28;20198;-86
2021/06/23 04:10:17;;;;;;;10.95;9.82;;;20.50;94.00;;;20.87;76.17;94942.53;5098903;28;20561;-86
2021/06/23 04:12:44;;;;;;;10.70;9.60;;;20.50;93.90;;;20.88;75.74;94940.66;5060211;28;20218;-86
2021/06/23 04:15:15;;;;;;;11.13;9.93;;;20.60;93.90;;;20.90;75.96;94955.34;5048261;28;20222;-85
2021/06/23 04:17:45;;;;;;;10.73;9.52;;;20.60;93.80;;;20.90;75.79;94954.56;5048554;28;20237;-85
2021/06/23 04:20:16;;;;;;;9.38;8.48;;;20.60;93.80;;;20.93;75.55;94954.84;5004684;28;20369;-87
2021/06/23 04:22:56;;;;;;;10.80;9.65;;;20.60;93.90;;;20.96;76.13;94964.19;4835625;29;20219;-85
2021/06/23 04:27:16;;;;;;;11.07;9.90;;;20.70;93.90;;;21.03;75.88;94969.28;5149361;27;20643;-87
2021/06/23 04:29:43;;;;;;;11.40;10.20;;;20.80;94.00;;;21.01;75.33;94958.91;5068459;28;20225;-87
2021/06/23 04:32:10;;;;;;;12.73;9.70;;;20.80;93.80;;;21.04;75.49;94963.69;5105657;28;20224;-86
2021/06/23 04:34:42;;;;;;;9.70;8.73;;;20.80;93.90;;;21.09;75.89;94969.09;5071499;28;20225;-87
2021/06/23 04:37:38;;;;;;;11.68;10.48;;;20.80;93.90;;;21.07;75.64;94971.19;5036195;28;20206;-87
2021/06/23 04:40:10;;;;;;;10.73;9.60;;;20.80;93.80;;;21.09;75.22;94976.28;4996696;28;20256;-87
2021/06/23 04:42:39;;;;;;;10.52;9.45;;;20.80;93.60;;;21.02;74.82;94973.84;4832701;29;20212;-86
2021/06/23 04:45:11;;;;;;;10.63;9.43;;;20.80;93.60;;;21.04;75.65;94987.69;4722064;29;20230;-87
2021/06/23 04:47:49;;;;;;;9.60;8.57;;;20.80;93.60;;;21.02;75.58;94992.50;5151371;27;20306;-86
2021/06/23 04:50:16;;;;;;;11.95;9.93;;;20.90;93.60;;;20.99;75.29;94981.53;5085659;28;20308;-85
2021/06/23 04:53:12;;;;;;;11.27;9.60;;;20.80;93.60;;;20.99;75.39;94982.34;5078304;28;20205;-87
2021/06/23 04:55:41;;;;;;;11.52;9.93;;;20.80;93.60;;;21.03;76.06;94999.44;5086537;28;20564;-87
2021/06/23 04:58:14;;;;;;;12.40;10.60;;;20.80;93.70;;;21.06;76.15;94998.13;5055157;28;20211;-87
2021/06/23 05:00:41;;;;;;;12.90;9.55;;;20.90;94.00;;;21.16;76.18;94998.19;4993291;28;20344;-88
2021/06/23 05:03:14;;;;;;;11.35;10.00;;;20.80;94.00;;;21.24;76.66;95005.72;4905428;29;20238;-87
2021/06/23 05:07:06;;;;;;;10.93;9.77;;;20.90;94.10;;;21.34;76.47;95006.84;5151806;27;20630;-87
2021/06/23 05:09:38;;;;;;;13.68;8.85;;;21.00;94.20;;;21.38;76.18;95005.28;5079505;28;20226;-87
2021/06/23 05:12:06;;;;;;;13.27;10.85;;;21.00;94.10;;;21.33;75.45;94999.91;5093640;28;20197;-86
2021/06/23 05:14:34;;;;;;;13.88;10.38;;;21.10;93.90;;;21.35;75.57;95003.09;5108183;28;20252;-88
2021/06/23 05:17:01;;;;;;;11.43;9.52;;;21.10;93.80;;;21.35;75.74;95016.44;5062559;28;20254;-88
2021/06/23 05:19:28;;;;;;;15.05;11.38;;;21.10;93.70;;;21.32;75.27;95016.97;5035282;28;20564;-88
2021/06/23 05:21:56;;;;;;;16.10;11.07;;;21.10;93.60;;;21.31;75.45;95013.47;4974851;28;20217;-88
2021/06/23 05:24:23;;;;;;;15.88;12.10;;;21.10;93.70;;;21.27;75.55;95007.06;4773926;29;20242;-87
2021/06/23 05:28:56;;;;;;;15.02;11.45;;;21.10;93.60;;;21.26;75.82;95013.47;5144861;27;20664;-88
2021/06/23 05:31:23;;;;;;;16.25;11.48;;;21.10;93.70;;;21.31;75.84;95026.03;5126691;28;20205;-88
2021/06/23 05:33:49;;;;;;;18.48;13.43;;;21.10;93.60;;;21.34;75.62;95026.31;5094016;28;20237;-87
2021/06/23 05:36:16;;;;;;;19.55;13.85;;;21.10;93.60;;;21.26;75.10;95016.94;5087548;28;20202;-87
2021/06/23 05:38:42;;;;;;;23.30;16.27;;;21.10;93.60;;;21.15;75.10;95012.56;5058452;28;20224;-87
2021/06/23 05:41:09;;;;;;;20.50;14.90;;;21.10;93.40;;;21.20;75.01;95033.97;5049179;28;20658;-87
2021/06/23 05:43:35;;;;;;;19.33;13.98;;;21.10;93.40;;;21.22;75.44;95044.38;4979269;28;20286;-87
2021/06/23 05:46:02;;;;;;;20.50;12.80;;;21.00;93.50;;;21.24;75.59;95050.28;4811593;29;20222;-86
2021/06/23 05:48:28;;;;;;;20.88;13.15;;;21.00;93.60;;;21.25;75.45;95050.00;4576465;30;20324;-87
2021/06/23 05:51:08;;;;;;;22.52;15.27;;;21.00;93.60;;;21.28;75.65;95048.69;5150597;27;20383;-88
2021/06/23 05:53:35;;;;;;;22.08;13.75;;;21.00;93.60;;;21.32;75.69;95059.66;5128862;27;20234;-87
2021/06/23 05:56:02;;;;;;;18.60;12.88;;;21.00;93.70;;;21.34;75.70;95060.22;5111417;27;20212;-87
2021/06/23 05:58:28;;;;;;;16.98;12.30;;;21.00;93.70;;;21.37;75.61;95063.19;5088742;28;20261;-87
2021/06/23 06:00:55;;;;;;;17.02;12.05;;;21.00;93.60;;;21.37;75.59;95057.03;5024592;28;20205;-85
2021/06/23 06:03:22;;;;;;;19.45;13.00;;;21.10;93.70;;;21.39;75.78;95060.25;4981126;28;20216;-87
2021/06/23 06:05:48;;;;;;;19.60;12.18;;;21.10;93.70;;;21.43;76.19;95066.66;4990265;28;20202;-87
2021/06/23 06:08:15;;;;;;;20.55;12.75;;;21.10;93.80;;;21.47;76.51;95066.97;4809944;29;20226;-86
2021/06/23 06:12:17;;;;;;;20.08;12.43;;;21.10;93.90;;;21.72;77.73;95075.16;5139651;27;20974;-87
2021/06/23 06:14:45;;;;;;;20.55;11.75;;;21.20;94.50;;;21.93;77.85;95074.47;5113149;28;20349;-87
2021/06/23 06:17:11;;;;;;;21.30;12.32;;;21.30;94.80;;;22.14;77.80;95072.69;5102721;28;20204;-86
2021/06/23 06:19:38;;;;;;;20.70;11.75;;;21.50;95.10;;;22.35;78.20;95076.22;5082893;28;20225;-86
2021/06/23 06:22:04;;;;;;;18.73;11.75;;;21.60;95.30;;;22.51;77.94;95080.59;5001430;28;20459;-87
2021/06/23 06:24:31;;;;;;;20.17;12.40;;;21.80;95.30;;;22.64;77.16;95081.16;4860564;29;20332;-87
2021/06/23 06:26:58;;;;;;;15.85;11.10;;;21.90;95.00;;;22.71;76.89;95079.84;4802982;29;20214;-87
2021/06/23 06:29:25;;;;;;;19.23;12.40;;;22.00;94.80;;;22.76;76.29;95072.91;4721741;29;20247;-87
2021/06/23 06:34:12;;;;;;;20.35;13.15;;;22.10;94.60;;;22.80;75.92;95084.66;5145676;27;20426;-86
2021/06/23 06:36:44;;;;;;;16.85;12.20;;;22.30;94.10;;;22.74;75.18;95081.19;5109610;27;20200;-86
2021/06/23 06:39:10;;;;;;;21.13;13.82;;;22.30;93.80;;;22.70;75.25;95086.28;5128141;27;20255;-86
2021/06/23 06:41:37;;;;;;;19.45;12.63;;;22.30;93.70;;;22.70;75.39;95080.94;5064130;28;20242;-86
2021/06/23 06:44:04;;;;;;;20.65;12.88;;;22.30;93.80;;;22.69;75.99;95083.84;5046281;28;20605;-85
2021/06/23 06:46:30;;;;;;;21.58;15.05;;;22.30;93.80;;;22.77;75.41;95095.91;4996647;28;20222;-87
2021/06/23 06:48:56;;;;;;;23.85;15.00;;;22.30;93.70;;;22.78;75.53;95097.53;4898145;28;20221;-86
2021/06/23 06:51:29;;;;;;;22.70;14.57;;;22.30;93.80;;;22.83;75.44;95106.34;4846545;29;20247;-87
2021/06/23 06:56:24;;;;;;;22.35;15.07;;;22.30;93.70;;;22.74;74.71;95109.78;5151706;27;20626;-87
2021/06/23 06:58:51;;;;;;;19.52;13.00;;;22.40;93.30;;;22.70;75.27;95106.84;5084952;28;20678;-86
2021/06/23 07:01:18;;;;;;;17.67;12.23;;;22.30;93.40;;;22.70;75.79;95104.16;5089244;28;20236;-87
2021/06/23 07:03:44;;;;;;;19.60;13.60;;;22.30;93.50;;;22.76;75.90;95110.34;5084874;28;20228;-85
2021/06/23 07:06:11;;;;;;;22.27;14.05;;;22.40;93.70;;;22.83;76.04;95117.03;5082647;28;20209;-88
2021/06/23 07:08:37;;;;;;;22.08;14.73;;;22.40;93.80;;;22.90;75.67;95114.13;5054170;28;20234;-87
2021/06/23 07:11:04;;;;;;;22.15;14.20;;;22.40;93.90;;;22.98;76.22;95123.47;5000907;28;20296;-87
2021/06/23 07:13:30;;;;;;;24.42;15.68;;;22.50;94.00;;;23.09;76.25;95129.66;4835813;28;20236;-86
2021/06/23 07:18:06;;;;;;;16.83;12.40;;;22.50;94.00;;;23.29;76.38;95128.88;5151193;27;20929;-87
2021/06/23 07:20:32;;;;;;;18.00;12.82;;;22.70;94.20;;;23.45;76.94;95135.06;5111890;27;20215;-86
2021/06/23 07:22:59;;;;;;;15.85;11.88;;;22.80;94.40;;;23.63;77.23;95125.66;5093288;28;20254;-87
2021/06/23 07:25:26;;;;;;;15.75;11.88;;;22.90;94.60;;;23.83;76.87;95132.91;5052888;28;20735;-87
2021/06/23 07:27:53;;;;;;;14.95;11.10;;;23.00;94.60;;;24.02;77.05;95126.97;5060444;28;20258;-87
2021/06/23 07:30:21;;;;;;;16.08;11.48;;;23.20;94.60;;;24.17;76.50;95123.44;4981006;28;20231;-87
2021/06/23 07:32:51;;;;;;;15.23;11.30;;;23.30;94.50;;;24.29;76.29;95129.31;4865885;29;20649;-87
2021/06/23 07:38:14;;;;;;;13.43;10.45;;;23.60;94.00;;;24.45;75.85;95128.19;5149785;27;20605;-87
2021/06/23 07:43:13;;;;;;;14.70;10.95;;;23.70;93.70;;;24.66;75.61;95127.31;5088927;28;20201;-86
2021/06/23 07:45:49;;;;;;;13.55;10.93;;;23.80;93.80;;;24.77;75.77;95126.97;5089166;28;20193;-86
2021/06/23 07:48:37;;;;;;;15.02;11.20;;;23.90;94.00;;;24.99;76.13;95141.09;4995827;28;20277;-85
2021/06/23 07:51:13;;;;;;;16.08;11.48;;;24.10;94.00;;;25.19;76.31;95129.41;4927765;28;20313;-85
2021/06/23 08:11:00;;;;;;;11.07;9.93;;;25.00;93.30;;;26.03;74.86;95126.56;4837528;29;20228;-85
2021/06/23 08:13:27;;;;;;;10.98;9.50;;;25.10;93.40;;;26.19;74.73;95121.06;4733694;30;20580;-85
2021/06/23 08:15:53;;;;;;;12.68;10.57;;;25.20;93.40;;;26.34;74.10;95128.13;4697701;30;20705;-85
2021/06/23 08:20:52;;;;;;;11.63;10.20;;;25.30;93.00;;;26.35;72.42;95129.75;5151094;27;20380;-86
2021/06/23 08:23:19;;;;;;;9.65;8.68;;;25.50;92.00;;;26.31;72.43;95132.19;5108900;28;20212;-85
2021/06/23 08:25:46;;;;;;;10.52;8.45;;;25.50;92.00;;;26.30;72.55;95124.44;5090525;28;20209;-85
2021/06/23 08:28:13;;;;;;;13.90;10.13;;;25.60;91.70;;;26.28;72.65;95127.41;5065557;28;20221;-85
2021/06/23 08:30:40;;;;;;;11.40;10.02;;;25.60;91.60;;;26.26;72.33;95126.09;5019771;28;20674;-86
2021/06/23 08:33:07;;;;;;;10.48;9.05;;;25.60;91.50;;;26.22;72.38;95120.50;4917684;29;20209;-85
2021/06/23 08:35:33;;;;;;;9.68;8.68;;;25.60;91.40;;;26.20;72.44;95115.38;4877540;29;20231;-84
2021/06/23 08:38:00;;;;;;;10.02;8.75;;;25.60;91.40;;;26.27;72.68;95119.63;4514331;29;20236;-84
2021/06/23 08:42:34;;;;;;;9.70;8.70;;;25.70;91.50;;;26.35;71.98;95132.44;5112643;27;20570;-85
2021/06/23 08:45:01;;;;;;;9.00;8.10;;;25.70;91.30;;;26.38;72.31;95126.50;5077242;28;20214;-85
2021/06/23 08:47:30;;;;;;;9.45;8.55;;;25.80;91.30;;;26.50;72.11;95140.34;5086095;28;20634;-83
2021/06/23 08:49:57;;;;;;;9.88;8.45;;;25.80;91.00;;;26.58;71.92;95135.41;5074184;28;20216;-84
2021/06/23 08:52:25;;;;;;;11.27;8.93;;;25.90;90.90;;;26.64;71.29;95140.41;4986733;28;20209;-85
2021/06/23 08:54:55;;;;;;;9.40;8.40;;;25.90;90.80;;;26.67;71.29;95134.47;4879568;29;20238;-85
2021/06/23 08:57:23;;;;;;;9.90;8.90;;;26.00;90.90;;;26.82;71.33;95133.50;4813027;29;20730;-83
2021/06/23 08:59:49;;;;;;;9.25;8.35;;;26.10;90.90;;;26.94;71.38;95126.88;4742253;29;20227;-85
2021/06/23 09:02:17;;;;;;;8.93;8.05;;;26.20;91.00;;;27.11;71.82;95135.25;4483788;30;20245;-85
2021/06/23 09:04:56;;;;;;;11.30;9.07;;;26.30;90.90;;;27.24;71.45;95141.78;5133859;27;20410;-85
2021/06/23 09:07:48;;;;;;;10.77;9.68;;;26.30;91.20;;;27.23;70.36;95132.09;5098524;28;20204;-85
2021/06/23 09:10:24;;;;;;;8.82;7.85;;;26.40;90.20;;;27.33;70.57;95139.22;5050331;28;20610;-84
2021/06/23 09:13:08;;;;;;;8.68;7.85;;;26.50;90.10;;;27.43;70.55;95144.50;5031160;28;20218;-85
2021/06/23 09:15:57;;;;;;;8.77;7.90;;;26.60;90.30;;;27.46;70.69;95138.50;5025721;28;20665;-84
2021/06/23 09:18:40;;;;;;;8.38;7.47;;;26.70;90.00;;;27.64;70.29;95141.47;4874899;29;20209;-86
2021/06/23 09:21:17;;;;;;;9.38;7.22;;;26.80;90.00;;;27.85;70.79;95136.53;4589059;29;20467;-86
2021/06/23 09:26:14;;;;;;;8.50;7.70;;;26.90;90.10;;;28.18;69.57;95141.88;5148971;27;20735;-83
2021/06/23 09:28:42;;;;;;;8.48;7.55;;;27.20;89.00;;;28.22;69.32;95140.22;5087166;28;20240;-83
2021/06/23 09:31:09;;;;;;;7.75;6.95;;;27.30;90.40;;;28.24;68.94;95135.28;5072998;28;20639;-83
2021/06/23 09:33:38;;;;;;;7.78;7.07;;;27.40;90.00;;;28.28;69.07;95136.31;5099783;28;20222;-83
2021/06/23 09:36:07;;;;;;;7.28;6.57;;;27.50;89.30;;;28.32;68.48;95136.50;5072066;28;20224;-83
2021/06/23 09:38:54;;;;;;;7.85;6.60;;;27.50;89.60;;;28.37;69.33;95128.31;5040669;28;20307;-83
2021/06/23 09:41:29;;;;;;;6.47;5.88;;;27.60;90.10;;;28.53;69.31;95133.41;4849184;29;20287;-83
2021/06/23 09:46:39;;;;;;;6.40;5.80;;;27.70;89.10;;;28.82;68.09;95133.09;5150392;27;20628;-83
2021/06/23 09:49:10;;;;;;;6.25;5.65;;;27.90;87.70;;;29.00;67.70;95130.56;5071385;28;20236;-83
2021/06/23 09:52:07;;;;;;;6.60;6.00;;;28.10;87.00;;;29.06;67.67;95132.84;5068670;28;20563;-82
2021/06/23 09:54:53;;;;;;;6.25;5.75;;;28.10;85.90;;;29.08;67.03;95122.50;5023526;28;20225;-83
2021/06/23 09:57:23;;;;;;;7.85;6.15;;;28.30;87.00;;;29.20;67.55;95130.09;4954511;28;20217;-82
2021/06/23 09:59:54;;;;;;;6.65;5.50;;;28.30;87.00;;;29.31;66.97;95119.06;4957496;28;20261;-82
2021/06/23 10:02:30;;;;;;;5.97;5.47;;;28.40;87.20;;;29.39;66.41;95121.03;4861294;29;20747;-83
2021/06/23 10:05:18;;;;;;;7.03;6.32;;;28.50;85.20;;;29.40;65.32;95138.84;5132885;27;20659;-83
2021/06/23 10:07:50;;;;;;;7.20;6.28;;;28.60;84.20;;;29.34;64.79;95130.06;5085737;28;20262;-83
2021/06/23 10:10:20;;;;;;;6.28;5.78;;;28.60;83.80;;;29.36;65.42;95127.06;5064814;28;20225;-83
2021/06/23 10:12:54;;;;;;;5.88;5.32;;;28.70;84.70;;;29.39;65.40;95138.06;5050995;27;20223;-83
2021/06/23 10:15:22;;;;;;;6.13;5.53;;;28.70;83.20;;;29.48;65.50;95140.81;5077129;28;20705;-83
2021/06/23 10:17:49;;;;;;;6.60;5.95;;;28.80;84.10;;;29.56;64.74;95136.56;5082852;28;20203;-83
2021/06/23 10:20:17;;;;;;;6.40;5.80;;;28.80;84.00;;;29.67;64.95;95142.53;5023492;28;20223;-83
2021/06/23 10:22:45;;;;;;;5.85;5.35;;;28.90;83.60;;;29.77;64.03;95139.59;4897849;28;20228;-82
2021/06/23 10:27:49;;;;;;;5.43;4.93;;;28.90;83.40;;;30.05;63.14;95120.50;5150462;27;20724;-83
2021/06/23 10:30:18;;;;;;;6.60;5.93;;;29.10;83.10;;;30.25;63.88;95123.75;5113252;28;20227;-82
2021/06/23 10:32:45;;;;;;;6.10;5.60;;;29.30;83.00;;;30.47;64.00;95120.97;5084569;28;20228;-83
2021/06/23 10:35:15;;;;;;;5.65;5.15;;;29.40;83.20;;;30.63;62.47;95110.53;5042656;28;20229;-83
2021/06/23 10:37:43;;;;;;;5.60;5.10;;;29.60;81.40;;;30.77;62.06;95120.44;4999659;28;20205;-83
2021/06/23 10:40:14;;;;;;;5.90;5.40;;;29.70;82.30;;;30.76;61.53;95113.41;4961919;28;20354;-83
2021/06/23 10:42:41;;;;;;;6.22;5.72;;;29.80;81.20;;;30.73;61.63;95116.75;4966334;28;20224;-84
2021/06/23 10:45:10;;;;;;;6.65;6.05;;;29.90;81.20;;;30.64;61.38;95114.03;4844997;29;20311;-83
2021/06/23 10:49:46;;;;;;;5.63;5.13;;;29.90;79.40;;;30.47;61.23;95120.19;5139541;27;20672;-84
2021/06/23 10:52:20;;;;;;;6.07;5.50;;;29.90;79.90;;;30.47;60.73;95126.38;5098983;28;20213;-85
2021/06/23 10:54:57;;;;;;;5.15;4.75;;;29.90;78.90;;;30.48;60.63;95125.28;5043201;28;20745;-83
2021/06/23 10:57:26;;;;;;;5.15;4.70;;;29.90;79.30;;;30.51;61.31;95123.88;4999163;28;20586;-84
2021/06/23 10:59:59;;;;;;;4.93;4.53;;;29.90;80.20;;;30.57;60.98;95125.31;4995047;28;20294;-83
2021/06/23 11:02:34;;;;;;;5.32;4.82;;;29.90;78.50;;;30.62;60.49;95125.16;4960940;28;20225;-86
2021/06/23 11:05:02;;;;;;;5.57;4.93;;;29.90;78.20;;;30.72;60.43;95134.13;4903976;29;20234;-84
2021/06/23 11:08:24;;;;;;;5.40;4.90;;;29.90;79.10;;;30.81;60.79;95122.19;5125780;27;20575;-82
2021/06/23 11:10:52;;;;;;;5.10;4.70;;;30.00;79.00;;;30.97;60.26;95119.03;5071766;28;20571;-83
2021/06/23 11:13:25;;;;;;;5.28;4.78;;;30.10;79.60;;;31.14;59.48;95120.97;5103382;28;20202;-84
2021/06/23 11:15:53;;;;;;;5.38;4.88;;;30.20;78.80;;;31.26;60.05;95120.31;5040772;28;20195;-85
2021/06/23 11:18:32;;;;;;;5.60;4.95;;;30.30;78.70;;;31.43;58.44;95117.63;5035698;28;20696;-84
2021/06/23 11:21:21;;;;;;;5.53;5.00;;;30.50;77.60;;;31.56;58.55;95112.34;5002674;28;20686;-84
2021/06/23 11:24:02;;;;;;;5.15;4.75;;;30.70;78.60;;;31.63;58.60;95118.06;4946655;28;20215;-84
2021/06/23 11:28:09;;;;;;;5.20;4.70;;;30.70;78.00;;;31.62;58.65;95114.53;5148491;27;20561;-84
2021/06/23 11:31:00;;;;;;;5.00;4.60;;;30.90;77.60;;;31.69;58.63;95105.16;5085567;28;20219;-84
2021/06/23 11:33:27;;;;;;;5.28;4.78;;;30.90;77.40;;;31.83;58.46;95107.69;5089797;28;20197;-83
2021/06/23 11:35:56;;;;;;;5.35;4.85;;;31.00;77.20;;;32.00;57.65;95112.25;5070161;28;20230;-85
2021/06/23 11:38:23;;;;;;;5.35;4.88;;;31.10;76.60;;;32.16;56.79;95104.38;5039532;28;20199;-84